Archival Weather

Republic

Farmingdale, New York (KFRG)

Report from: Saturday, February 17, 2024 11:06 AM EST
Current time: Friday, June 21, 2024 7:38 PM EDT

Current weather – Weather history – Daily summaries
Weather forecast

Temperature1.1°C (34.0°F)
Wind chill-1.8°C (28.8°F)
Dew point-1.7°C (28.9°F)
Winds 5 kts (2.6 m/s, 5.8 mph) North-Northwest (340°)
Visibility3 mi. (4.8 km)
Clouds Ceiling: Broken clouds 1,000 ft. (305 m)
Broken clouds 1,600 ft. (488 m)
Overcast 4,400 ft. (1,341 m)
Altimeter29.75 in.Hg (1007 mB)
Relative humidity82 %
Density altitude-1,413 ft. (-431 m)
Remarks Automated weather observing station without precipitation discriminator
Surface visibility
Flight conditions Marginal Visual Meteorological Conditions
Raw dataKFRG 171606Z 34005KT 3SM BKN010 BKN016 OVC044 01/M02 A2975 RMK AO1 SFC VIS 10 T00111017
An error has occurred. This application may no longer respond until reloaded. Reload 🗙